sensor_id;sensor_type;location;lat;lon;timestamp;P1;durP1;ratioP1;P2;durP2;ratioP2
53411;SDS011;39307;52.870;13.660;2022-09-09T00:04:38;7.35;;;6.05;;
53411;SDS011;39307;52.870;13.660;2022-09-09T00:12:53;8.85;;;7.05;;
53411;SDS011;39307;52.870;13.660;2022-09-09T00:15:43;10.63;;;8.50;;
53411;SDS011;39307;52.870;13.660;2022-09-09T00:21:19;10.05;;;8.18;;
53411;SDS011;39307;52.870;13.660;2022-09-09T00:23:56;9.88;;;8.02;;
53411;SDS011;39307;52.870;13.660;2022-09-09T00:26:38;10.40;;;8.27;;
53411;SDS011;39307;52.870;13.660;2022-09-09T00:32:14;9.85;;;8.68;;
53411;SDS011;39307;52.870;13.660;2022-09-09T00:34:49;10.23;;;8.70;;
53411;SDS011;39307;52.870;13.660;2022-09-09T00:37:20;9.88;;;8.00;;
53411;SDS011;39307;52.870;13.660;2022-09-09T00:39:50;10.60;;;8.10;;
53411;SDS011;39307;52.870;13.660;2022-09-09T00:42:23;10.65;;;8.32;;
53411;SDS011;39307;52.870;13.660;2022-09-09T00:45:01;9.82;;;8.43;;
53411;SDS011;39307;52.870;13.660;2022-09-09T00:47:49;11.02;;;8.38;;
53411;SDS011;39307;52.870;13.660;2022-09-09T00:59:03;10.85;;;9.20;;
53411;SDS011;39307;52.870;13.660;2022-09-09T01:01:43;12.35;;;10.35;;
53411;SDS011;39307;52.870;13.660;2022-09-09T01:04:12;14.55;;;10.98;;
53411;SDS011;39307;52.870;13.660;2022-09-09T01:06:45;19.20;;;12.65;;
53411;SDS011;39307;52.870;13.660;2022-09-09T01:12:23;15.82;;;11.80;;
53411;SDS011;39307;52.870;13.660;2022-09-09T01:15:04;13.95;;;11.95;;
53411;SDS011;39307;52.870;13.660;2022-09-09T01:20:54;13.00;;;10.50;;
53411;SDS011;39307;52.870;13.660;2022-09-09T01:26:14;14.23;;;11.73;;
53411;SDS011;39307;52.870;13.660;2022-09-09T01:28:48;13.30;;;11.20;;
53411;SDS011;39307;52.870;13.660;2022-09-09T01:34:14;15.52;;;12.50;;
53411;SDS011;39307;52.870;13.660;2022-09-09T01:36:53;13.70;;;11.95;;
53411;SDS011;39307;52.870;13.660;2022-09-09T01:39:28;14.18;;;11.85;;
53411;SDS011;39307;52.870;13.660;2022-09-09T01:41:54;15.13;;;12.23;;
53411;SDS011;39307;52.870;13.660;2022-09-09T01:44:22;16.27;;;12.63;;
53411;SDS011;39307;52.870;13.660;2022-09-09T01:46:50;14.68;;;12.50;;
53411;SDS011;39307;52.870;13.660;2022-09-09T01:49:16;16.45;;;13.32;;
53411;SDS011;39307;52.870;13.660;2022-09-09T01:51:43;15.67;;;13.27;;
53411;SDS011;39307;52.870;13.660;2022-09-09T01:54:16;16.25;;;12.77;;
53411;SDS011;39307;52.870;13.660;2022-09-09T01:57:01;16.20;;;12.75;;
53411;SDS011;39307;52.870;13.660;2022-09-09T01:59:45;15.75;;;13.02;;
53411;SDS011;39307;52.870;13.660;2022-09-09T02:02:30;17.38;;;13.82;;
53411;SDS011;39307;52.870;13.660;2022-09-09T02:07:50;18.55;;;14.23;;
53411;SDS011;39307;52.870;13.660;2022-09-09T02:10:44;18.77;;;14.80;;
53411;SDS011;39307;52.870;13.660;2022-09-09T02:13:24;18.40;;;14.53;;
53411;SDS011;39307;52.870;13.660;2022-09-09T02:21:17;19.05;;;14.43;;
53411;SDS011;39307;52.870;13.660;2022-09-09T02:23:44;19.20;;;14.88;;
53411;SDS011;39307;52.870;13.660;2022-09-09T02:26:13;20.40;;;15.70;;
53411;SDS011;39307;52.870;13.660;2022-09-09T02:28:41;21.07;;;15.30;;
53411;SDS011;39307;52.870;13.660;2022-09-09T02:31:08;21.67;;;16.10;;
53411;SDS011;39307;52.870;13.660;2022-09-09T02:33:40;20.55;;;16.25;;
53411;SDS011;39307;52.870;13.660;2022-09-09T02:36:11;22.35;;;16.33;;
53411;SDS011;39307;52.870;13.660;2022-09-09T02:38:42;20.65;;;16.38;;
53411;SDS011;39307;52.870;13.660;2022-09-09T02:41:11;20.83;;;16.40;;
53411;SDS011;39307;52.870;13.660;2022-09-09T02:43:38;18.75;;;15.52;;
53411;SDS011;39307;52.870;13.660;2022-09-09T02:46:20;21.38;;;16.20;;
53411;SDS011;39307;52.870;13.660;2022-09-09T02:49:09;20.63;;;15.83;;
53411;SDS011;39307;52.870;13.660;2022-09-09T02:54:30;17.63;;;14.07;;
53411;SDS011;39307;52.870;13.660;2022-09-09T02:57:05;17.27;;;13.85;;
53411;SDS011;39307;52.870;13.660;2022-09-09T02:59:38;17.10;;;14.00;;
53411;SDS011;39307;52.870;13.660;2022-09-09T03:02:05;17.77;;;14.57;;
53411;SDS011;39307;52.870;13.660;2022-09-09T03:04:32;16.77;;;13.93;;
53411;SDS011;39307;52.870;13.660;2022-09-09T03:06:58;16.77;;;14.00;;
53411;SDS011;39307;52.870;13.660;2022-09-09T03:09:25;17.33;;;13.98;;
53411;SDS011;39307;52.870;13.660;2022-09-09T03:11:51;16.90;;;13.68;;
53411;SDS011;39307;52.870;13.660;2022-09-09T03:14:18;16.48;;;13.60;;
53411;SDS011;39307;52.870;13.660;2022-09-09T03:16:44;16.27;;;13.63;;
53411;SDS011;39307;52.870;13.660;2022-09-09T03:19:10;15.90;;;12.80;;
53411;SDS011;39307;52.870;13.660;2022-09-09T03:21:37;16.20;;;12.70;;
53411;SDS011;39307;52.870;13.660;2022-09-09T03:24:03;15.13;;;12.68;;
53411;SDS011;39307;52.870;13.660;2022-09-09T03:26:30;14.35;;;12.05;;
53411;SDS011;39307;52.870;13.660;2022-09-09T03:28:56;14.77;;;11.95;;
53411;SDS011;39307;52.870;13.660;2022-09-09T03:31:23;15.50;;;12.57;;
53411;SDS011;39307;52.870;13.660;2022-09-09T03:33:49;14.45;;;12.15;;
53411;SDS011;39307;52.870;13.660;2022-09-09T03:36:16;14.25;;;12.23;;
53411;SDS011;39307;52.870;13.660;2022-09-09T03:38:43;13.10;;;11.25;;
53411;SDS011;39307;52.870;13.660;2022-09-09T03:41:09;14.73;;;12.50;;
53411;SDS011;39307;52.870;13.660;2022-09-09T03:43:35;15.27;;;11.90;;
53411;SDS011;39307;52.870;13.660;2022-09-09T03:46:02;14.85;;;12.48;;
53411;SDS011;39307;52.870;13.660;2022-09-09T03:48:28;14.43;;;12.45;;
53411;SDS011;39307;52.870;13.660;2022-09-09T03:50:54;15.88;;;12.85;;
53411;SDS011;39307;52.870;13.660;2022-09-09T03:53:21;14.55;;;12.18;;
53411;SDS011;39307;52.870;13.660;2022-09-09T03:55:50;15.73;;;12.55;;
53411;SDS011;39307;52.870;13.660;2022-09-09T03:58:17;16.33;;;13.70;;
53411;SDS011;39307;52.870;13.660;2022-09-09T04:00:44;16.20;;;13.10;;
53411;SDS011;39307;52.870;13.660;2022-09-09T04:03:26;15.68;;;13.18;;
53411;SDS011;39307;52.870;13.660;2022-09-09T04:05:53;15.63;;;12.60;;
53411;SDS011;39307;52.870;13.660;2022-09-09T04:08:21;15.52;;;13.20;;
53411;SDS011;39307;52.870;13.660;2022-09-09T04:10:48;17.25;;;13.93;;
53411;SDS011;39307;52.870;13.660;2022-09-09T04:13:15;14.63;;;12.43;;
53411;SDS011;39307;52.870;13.660;2022-09-09T04:15:42;14.68;;;12.63;;
53411;SDS011;39307;52.870;13.660;2022-09-09T04:18:09;15.98;;;12.82;;
53411;SDS011;39307;52.870;13.660;2022-09-09T04:20:36;15.10;;;13.05;;
53411;SDS011;39307;52.870;13.660;2022-09-09T04:23:03;14.93;;;12.90;;
53411;SDS011;39307;52.870;13.660;2022-09-09T04:25:29;15.25;;;13.15;;
53411;SDS011;39307;52.870;13.660;2022-09-09T04:27:56;15.50;;;13.35;;
53411;SDS011;39307;52.870;13.660;2022-09-09T04:30:23;14.45;;;12.60;;
53411;SDS011;39307;52.870;13.660;2022-09-09T04:32:50;15.45;;;13.55;;
53411;SDS011;39307;52.870;13.660;2022-09-09T04:35:16;14.60;;;13.00;;
53411;SDS011;39307;52.870;13.660;2022-09-09T04:37:43;14.55;;;12.25;;
53411;SDS011;39307;52.870;13.660;2022-09-09T04:40:09;13.75;;;11.85;;
53411;SDS011;39307;52.870;13.660;2022-09-09T04:42:36;13.75;;;12.02;;
53411;SDS011;39307;52.870;13.660;2022-09-09T04:45:02;12.95;;;11.55;;
53411;SDS011;39307;52.870;13.660;2022-09-09T04:47:29;14.35;;;12.70;;
53411;SDS011;39307;52.870;13.660;2022-09-09T04:49:55;13.95;;;12.45;;
53411;SDS011;39307;52.870;13.660;2022-09-09T04:52:21;14.43;;;12.50;;
53411;SDS011;39307;52.870;13.660;2022-09-09T04:54:48;15.18;;;12.65;;
53411;SDS011;39307;52.870;13.660;2022-09-09T04:57:14;14.25;;;12.32;;
53411;SDS011;39307;52.870;13.660;2022-09-09T04:59:40;14.38;;;12.50;;
53411;SDS011;39307;52.870;13.660;2022-09-09T05:02:07;14.10;;;12.60;;
53411;SDS011;39307;52.870;13.660;2022-09-09T05:04:33;14.60;;;13.05;;
53411;SDS011;39307;52.870;13.660;2022-09-09T05:07:00;14.52;;;12.88;;
53411;SDS011;39307;52.870;13.660;2022-09-09T05:09:26;14.85;;;12.85;;
53411;SDS011;39307;52.870;13.660;2022-09-09T05:11:52;15.27;;;12.63;;
53411;SDS011;39307;52.870;13.660;2022-09-09T05:14:18;14.05;;;12.55;;
53411;SDS011;39307;52.870;13.660;2022-09-09T05:16:45;15.07;;;12.93;;
53411;SDS011;39307;52.870;13.660;2022-09-09T05:19:11;14.48;;;12.40;;
53411;SDS011;39307;52.870;13.660;2022-09-09T05:21:38;14.63;;;13.02;;
53411;SDS011;39307;52.870;13.660;2022-09-09T05:24:04;14.65;;;12.93;;
53411;SDS011;39307;52.870;13.660;2022-09-09T05:26:30;14.57;;;12.95;;
53411;SDS011;39307;52.870;13.660;2022-09-09T05:28:56;14.00;;;12.40;;
53411;SDS011;39307;52.870;13.660;2022-09-09T05:31:23;16.55;;;12.63;;
53411;SDS011;39307;52.870;13.660;2022-09-09T05:33:49;14.60;;;12.05;;
53411;SDS011;39307;52.870;13.660;2022-09-09T05:36:17;15.05;;;12.65;;
53411;SDS011;39307;52.870;13.660;2022-09-09T05:38:45;14.50;;;12.48;;
53411;SDS011;39307;52.870;13.660;2022-09-09T05:41:12;14.97;;;12.50;;
53411;SDS011;39307;52.870;13.660;2022-09-09T05:43:39;15.45;;;13.18;;
53411;SDS011;39307;52.870;13.660;2022-09-09T05:46:06;14.55;;;12.85;;
53411;SDS011;39307;52.870;13.660;2022-09-09T05:48:40;15.70;;;13.13;;
53411;SDS011;39307;52.870;13.660;2022-09-09T05:51:09;15.37;;;13.47;;
53411;SDS011;39307;52.870;13.660;2022-09-09T05:53:37;16.75;;;14.52;;
53411;SDS011;39307;52.870;13.660;2022-09-09T05:56:14;15.90;;;13.87;;
53411;SDS011;39307;52.870;13.660;2022-09-09T05:58:45;15.95;;;13.93;;
53411;SDS011;39307;52.870;13.660;2022-09-09T06:01:12;17.10;;;13.73;;
53411;SDS011;39307;52.870;13.660;2022-09-09T06:03:41;15.00;;;13.15;;
53411;SDS011;39307;52.870;13.660;2022-09-09T06:06:10;16.70;;;13.38;;
53411;SDS011;39307;52.870;13.660;2022-09-09T06:08:41;14.77;;;12.90;;
53411;SDS011;39307;52.870;13.660;2022-09-09T06:11:09;14.80;;;12.77;;
53411;SDS011;39307;52.870;13.660;2022-09-09T06:13:37;14.48;;;12.13;;
53411;SDS011;39307;52.870;13.660;2022-09-09T06:16:04;14.43;;;12.00;;
53411;SDS011;39307;52.870;13.660;2022-09-09T06:18:31;14.77;;;12.07;;
53411;SDS011;39307;52.870;13.660;2022-09-09T06:21:02;14.57;;;11.60;;
53411;SDS011;39307;52.870;13.660;2022-09-09T06:23:30;14.30;;;11.95;;
53411;SDS011;39307;52.870;13.660;2022-09-09T06:26:06;12.63;;;11.07;;
53411;SDS011;39307;52.870;13.660;2022-09-09T06:28:33;12.93;;;10.38;;
53411;SDS011;39307;52.870;13.660;2022-09-09T06:31:00;11.02;;;9.10;;
53411;SDS011;39307;52.870;13.660;2022-09-09T06:33:30;12.60;;;10.13;;
53411;SDS011;39307;52.870;13.660;2022-09-09T06:35:58;13.43;;;10.60;;
53411;SDS011;39307;52.870;13.660;2022-09-09T06:38:24;12.90;;;10.20;;
53411;SDS011;39307;52.870;13.660;2022-09-09T06:40:54;11.23;;;9.30;;
53411;SDS011;39307;52.870;13.660;2022-09-09T06:43:25;11.82;;;9.73;;
53411;SDS011;39307;52.870;13.660;2022-09-09T06:45:58;11.50;;;9.98;;
53411;SDS011;39307;52.870;13.660;2022-09-09T06:48:26;12.77;;;10.02;;
53411;SDS011;39307;52.870;13.660;2022-09-09T06:53:33;11.77;;;9.53;;
53411;SDS011;39307;52.870;13.660;2022-09-09T06:56:01;12.95;;;10.43;;
53411;SDS011;39307;52.870;13.660;2022-09-09T06:58:43;11.85;;;9.93;;
53411;SDS011;39307;52.870;13.660;2022-09-09T07:01:13;12.75;;;9.20;;
53411;SDS011;39307;52.870;13.660;2022-09-09T07:03:45;13.48;;;9.65;;
53411;SDS011;39307;52.870;13.660;2022-09-09T07:06:18;12.45;;;10.13;;
53411;SDS011;39307;52.870;13.660;2022-09-09T07:08:51;13.30;;;9.07;;
53411;SDS011;39307;52.870;13.660;2022-09-09T07:11:19;10.05;;;8.43;;
53411;SDS011;39307;52.870;13.660;2022-09-09T07:13:47;9.88;;;8.02;;
53411;SDS011;39307;52.870;13.660;2022-09-09T07:16:15;9.27;;;6.87;;
53411;SDS011;39307;52.870;13.660;2022-09-09T07:18:43;11.27;;;6.82;;
53411;SDS011;39307;52.870;13.660;2022-09-09T07:21:11;10.40;;;7.57;;
53411;SDS011;39307;52.870;13.660;2022-09-09T07:23:39;8.85;;;6.57;;
53411;SDS011;39307;52.870;13.660;2022-09-09T07:26:09;8.93;;;6.40;;
53411;SDS011;39307;52.870;13.660;2022-09-09T07:28:36;8.38;;;6.28;;
53411;SDS011;39307;52.870;13.660;2022-09-09T07:31:04;7.88;;;5.90;;
53411;SDS011;39307;52.870;13.660;2022-09-09T07:33:32;9.27;;;6.00;;
53411;SDS011;39307;52.870;13.660;2022-09-09T07:36:09;8.73;;;6.17;;
53411;SDS011;39307;52.870;13.660;2022-09-09T07:38:39;11.07;;;5.93;;
53411;SDS011;39307;52.870;13.660;2022-09-09T07:41:11;8.98;;;6.03;;
53411;SDS011;39307;52.870;13.660;2022-09-09T07:43:47;8.63;;;4.80;;
53411;SDS011;39307;52.870;13.660;2022-09-09T07:46:15;9.98;;;4.07;;
53411;SDS011;39307;52.870;13.660;2022-09-09T07:48:44;8.13;;;3.67;;
53411;SDS011;39307;52.870;13.660;2022-09-09T07:51:12;6.32;;;3.70;;
53411;SDS011;39307;52.870;13.660;2022-09-09T07:53:40;7.00;;;3.63;;
53411;SDS011;39307;52.870;13.660;2022-09-09T07:56:07;7.38;;;3.28;;
53411;SDS011;39307;52.870;13.660;2022-09-09T07:58:36;9.98;;;3.42;;
53411;SDS011;39307;52.870;13.660;2022-09-09T08:01:16;6.28;;;2.75;;
53411;SDS011;39307;52.870;13.660;2022-09-09T08:03:57;4.87;;;2.30;;
53411;SDS011;39307;52.870;13.660;2022-09-09T08:06:26;6.80;;;2.50;;
53411;SDS011;39307;52.870;13.660;2022-09-09T08:08:56;6.70;;;2.33;;
53411;SDS011;39307;52.870;13.660;2022-09-09T08:11:23;3.60;;;2.03;;
53411;SDS011;39307;52.870;13.660;2022-09-09T08:13:51;7.57;;;2.35;;
53411;SDS011;39307;52.870;13.660;2022-09-09T08:16:19;5.75;;;2.10;;
53411;SDS011;39307;52.870;13.660;2022-09-09T08:18:50;6.97;;;2.00;;
53411;SDS011;39307;52.870;13.660;2022-09-09T08:21:18;4.82;;;1.80;;
53411;SDS011;39307;52.870;13.660;2022-09-09T08:23:47;5.03;;;1.65;;
53411;SDS011;39307;52.870;13.660;2022-09-09T08:26:19;5.22;;;1.60;;
53411;SDS011;39307;52.870;13.660;2022-09-09T08:28:50;4.38;;;1.90;;
53411;SDS011;39307;52.870;13.660;2022-09-09T08:31:24;3.70;;;1.50;;
53411;SDS011;39307;52.870;13.660;2022-09-09T08:33:59;4.20;;;1.80;;
53411;SDS011;39307;52.870;13.660;2022-09-09T08:36:28;5.55;;;1.60;;
53411;SDS011;39307;52.870;13.660;2022-09-09T08:38:57;5.32;;;1.50;;
53411;SDS011;39307;52.870;13.660;2022-09-09T08:41:40;4.10;;;1.60;;
53411;SDS011;39307;52.870;13.660;2022-09-09T08:47:03;3.05;;;1.50;;
53411;SDS011;39307;52.870;13.660;2022-09-09T08:50:05;3.80;;;1.55;;
53411;SDS011;39307;52.870;13.660;2022-09-09T08:52:38;4.47;;;1.40;;
53411;SDS011;39307;52.870;13.660;2022-09-09T08:57:51;3.20;;;1.20;;
53411;SDS011;39307;52.870;13.660;2022-09-09T09:00:20;3.55;;;1.60;;
53411;SDS011;39307;52.870;13.660;2022-09-09T09:02:54;2.92;;;1.00;;
53411;SDS011;39307;52.870;13.660;2022-09-09T09:05:28;4.38;;;1.38;;
53411;SDS011;39307;52.870;13.660;2022-09-09T09:11:06;5.32;;;1.30;;
53411;SDS011;39307;52.870;13.660;2022-09-09T09:13:40;3.35;;;1.20;;
53411;SDS011;39307;52.870;13.660;2022-09-09T09:16:17;5.43;;;1.20;;
53411;SDS011;39307;52.870;13.660;2022-09-09T09:18:46;3.50;;;1.20;;
53411;SDS011;39307;52.870;13.660;2022-09-09T09:21:16;4.13;;;1.30;;
53411;SDS011;39307;52.870;13.660;2022-09-09T09:24:00;4.30;;;1.40;;
53411;SDS011;39307;52.870;13.660;2022-09-09T09:26:34;4.07;;;1.17;;
53411;SDS011;39307;52.870;13.660;2022-09-09T09:29:07;2.47;;;1.10;;
53411;SDS011;39307;52.870;13.660;2022-09-09T09:31:51;3.50;;;1.30;;
53411;SDS011;39307;52.870;13.660;2022-09-09T09:34:19;4.00;;;1.10;;
53411;SDS011;39307;52.870;13.660;2022-09-09T09:36:56;3.28;;;1.10;;
53411;SDS011;39307;52.870;13.660;2022-09-09T09:39:24;4.50;;;1.40;;
53411;SDS011;39307;52.870;13.660;2022-09-09T09:41:54;4.30;;;1.10;;
53411;SDS011;39307;52.870;13.660;2022-09-09T09:44:28;3.40;;;1.00;;
53411;SDS011;39307;52.870;13.660;2022-09-09T09:47:11;5.55;;;1.17;;
53411;SDS011;39307;52.870;13.660;2022-09-09T09:50:01;4.13;;;1.38;;
53411;SDS011;39307;52.870;13.660;2022-09-09T09:52:27;3.88;;;1.30;;
53411;SDS011;39307;52.870;13.660;2022-09-09T09:54:55;4.55;;;1.33;;
53411;SDS011;39307;52.870;13.660;2022-09-09T09:57:27;6.53;;;1.30;;
53411;SDS011;39307;52.870;13.660;2022-09-09T10:00:03;4.65;;;1.33;;
53411;SDS011;39307;52.870;13.660;2022-09-09T10:02:36;5.13;;;1.30;;
53411;SDS011;39307;52.870;13.660;2022-09-09T10:05:06;4.30;;;1.35;;
53411;SDS011;39307;52.870;13.660;2022-09-09T10:07:38;5.45;;;1.60;;
53411;SDS011;39307;52.870;13.660;2022-09-09T10:10:05;6.47;;;1.35;;
53411;SDS011;39307;52.870;13.660;2022-09-09T10:12:43;4.38;;;1.38;;
53411;SDS011;39307;52.870;13.660;2022-09-09T10:15:32;5.15;;;1.50;;
53411;SDS011;39307;52.870;13.660;2022-09-09T10:21:16;3.83;;;1.50;;
53411;SDS011;39307;52.870;13.660;2022-09-09T10:26:52;4.07;;;1.23;;
53411;SDS011;39307;52.870;13.660;2022-09-09T10:29:32;3.85;;;1.15;;
53411;SDS011;39307;52.870;13.660;2022-09-09T10:32:30;6.45;;;1.30;;
53411;SDS011;39307;52.870;13.660;2022-09-09T10:38:13;4.07;;;1.27;;
53411;SDS011;39307;52.870;13.660;2022-09-09T10:49:17;4.20;;;1.20;;
53411;SDS011;39307;52.870;13.660;2022-09-09T10:57:01;3.72;;;1.00;;
53411;SDS011;39307;52.870;13.660;2022-09-09T10:59:39;4.30;;;1.30;;
53411;SDS011;39307;52.870;13.660;2022-09-09T11:02:15;5.95;;;1.10;;
53411;SDS011;39307;52.870;13.660;2022-09-09T11:04:53;4.55;;;1.15;;
53411;SDS011;39307;52.870;13.660;2022-09-09T11:10:04;3.90;;;1.13;;
53411;SDS011;39307;52.870;13.660;2022-09-09T11:12:42;3.63;;;1.00;;
53411;SDS011;39307;52.870;13.660;2022-09-09T11:15:18;3.03;;;1.10;;
53411;SDS011;39307;52.870;13.660;2022-09-09T11:17:58;3.50;;;1.00;;
53411;SDS011;39307;52.870;13.660;2022-09-09T11:20:30;4.03;;;1.17;;
53411;SDS011;39307;52.870;13.660;2022-09-09T11:23:03;2.78;;;0.90;;
53411;SDS011;39307;52.870;13.660;2022-09-09T11:25:39;4.13;;;1.27;;
53411;SDS011;39307;52.870;13.660;2022-09-09T11:28:21;2.40;;;0.93;;
53411;SDS011;39307;52.870;13.660;2022-09-09T11:33:55;3.97;;;1.00;;
53411;SDS011;39307;52.870;13.660;2022-09-09T11:36:32;3.93;;;0.90;;
53411;SDS011;39307;52.870;13.660;2022-09-09T11:42:06;4.55;;;1.10;;
53411;SDS011;39307;52.870;13.660;2022-09-09T11:44:33;4.25;;;1.20;;
53411;SDS011;39307;52.870;13.660;2022-09-09T11:46:59;3.85;;;1.13;;
53411;SDS011;39307;52.870;13.660;2022-09-09T11:52:21;5.47;;;1.17;;
53411;SDS011;39307;52.870;13.660;2022-09-09T11:55:11;4.30;;;1.13;;
53411;SDS011;39307;52.870;13.660;2022-09-09T11:58:14;3.65;;;0.82;;
53411;SDS011;39307;52.870;13.660;2022-09-09T12:00:42;3.53;;;1.00;;
53411;SDS011;39307;52.870;13.660;2022-09-09T12:06:20;4.03;;;1.00;;
53411;SDS011;39307;52.870;13.660;2022-09-09T12:08:56;3.13;;;1.00;;
53411;SDS011;39307;52.870;13.660;2022-09-09T12:11:31;3.28;;;1.13;;
53411;SDS011;39307;52.870;13.660;2022-09-09T12:13:59;3.40;;;1.00;;
53411;SDS011;39307;52.870;13.660;2022-09-09T12:16:33;4.53;;;1.30;;
53411;SDS011;39307;52.870;13.660;2022-09-09T12:21:44;3.40;;;1.00;;
53411;SDS011;39307;52.870;13.660;2022-09-09T12:24:18;4.03;;;0.90;;
53411;SDS011;39307;52.870;13.660;2022-09-09T12:27:07;3.25;;;1.00;;
53411;SDS011;39307;52.870;13.660;2022-09-09T12:29:48;3.67;;;0.88;;
53411;SDS011;39307;52.870;13.660;2022-09-09T12:32:27;4.40;;;1.10;;
53411;SDS011;39307;52.870;13.660;2022-09-09T12:37:32;3.80;;;0.88;;
53411;SDS011;39307;52.870;13.660;2022-09-09T12:40:01;4.13;;;0.93;;
53411;SDS011;39307;52.870;13.660;2022-09-09T12:42:29;4.25;;;1.05;;
53411;SDS011;39307;52.870;13.660;2022-09-09T12:44:57;4.38;;;1.05;;
53411;SDS011;39307;52.870;13.660;2022-09-09T12:47:33;5.85;;;1.10;;
53411;SDS011;39307;52.870;13.660;2022-09-09T12:50:04;2.83;;;0.80;;
53411;SDS011;39307;52.870;13.660;2022-09-09T12:52:40;2.97;;;0.80;;
53411;SDS011;39307;52.870;13.660;2022-09-09T12:55:07;3.63;;;0.85;;
53411;SDS011;39307;52.870;13.660;2022-09-09T12:57:42;2.85;;;1.00;;
53411;SDS011;39307;52.870;13.660;2022-09-09T13:00:15;4.75;;;1.13;;
53411;SDS011;39307;52.870;13.660;2022-09-09T13:02:51;3.53;;;1.00;;
53411;SDS011;39307;52.870;13.660;2022-09-09T13:05:24;4.43;;;0.90;;
53411;SDS011;39307;52.870;13.660;2022-09-09T13:08:02;3.53;;;1.00;;
53411;SDS011;39307;52.870;13.660;2022-09-09T13:10:33;4.15;;;0.88;;
53411;SDS011;39307;52.870;13.660;2022-09-09T13:13:04;3.50;;;1.00;;
53411;SDS011;39307;52.870;13.660;2022-09-09T13:15:39;3.10;;;0.98;;
53411;SDS011;39307;52.870;13.660;2022-09-09T13:18:14;3.20;;;0.80;;
53411;SDS011;39307;52.870;13.660;2022-09-09T13:20:45;2.38;;;0.80;;
53411;SDS011;39307;52.870;13.660;2022-09-09T13:23:13;3.07;;;0.77;;
53411;SDS011;39307;52.870;13.660;2022-09-09T13:25:52;5.15;;;1.08;;
53411;SDS011;39307;52.870;13.660;2022-09-09T13:28:27;4.28;;;1.10;;
53411;SDS011;39307;52.870;13.660;2022-09-09T13:30:59;3.97;;;1.00;;
53411;SDS011;39307;52.870;13.660;2022-09-09T13:33:44;4.72;;;0.80;;
53411;SDS011;39307;52.870;13.660;2022-09-09T13:36:11;3.08;;;1.00;;
53411;SDS011;39307;52.870;13.660;2022-09-09T13:38:40;4.43;;;1.00;;
53411;SDS011;39307;52.870;13.660;2022-09-09T13:41:21;3.17;;;0.77;;
53411;SDS011;39307;52.870;13.660;2022-09-09T13:43:48;3.65;;;1.00;;
53411;SDS011;39307;52.870;13.660;2022-09-09T13:48:56;2.65;;;0.70;;
53411;SDS011;39307;52.870;13.660;2022-09-09T13:51:33;2.13;;;0.80;;
53411;SDS011;39307;52.870;13.660;2022-09-09T13:54:11;3.72;;;0.82;;
53411;SDS011;39307;52.870;13.660;2022-09-09T13:56:39;4.75;;;1.02;;
53411;SDS011;39307;52.870;13.660;2022-09-09T13:59:09;3.55;;;0.90;;
53411;SDS011;39307;52.870;13.660;2022-09-09T14:01:39;3.63;;;0.95;;
53411;SDS011;39307;52.870;13.660;2022-09-09T14:04:05;2.25;;;0.85;;
53411;SDS011;39307;52.870;13.660;2022-09-09T14:06:31;3.20;;;0.95;;
53411;SDS011;39307;52.870;13.660;2022-09-09T14:08:59;3.35;;;0.90;;
53411;SDS011;39307;52.870;13.660;2022-09-09T14:11:25;4.63;;;1.10;;
53411;SDS011;39307;52.870;13.660;2022-09-09T14:13:52;4.93;;;1.03;;
53411;SDS011;39307;52.870;13.660;2022-09-09T14:16:19;4.30;;;0.82;;
53411;SDS011;39307;52.870;13.660;2022-09-09T14:18:45;2.75;;;0.82;;
53411;SDS011;39307;52.870;13.660;2022-09-09T14:21:11;4.22;;;0.80;;
53411;SDS011;39307;52.870;13.660;2022-09-09T14:23:38;3.20;;;0.90;;
53411;SDS011;39307;52.870;13.660;2022-09-09T14:26:04;3.50;;;0.90;;
53411;SDS011;39307;52.870;13.660;2022-09-09T14:28:31;3.22;;;0.90;;
53411;SDS011;39307;52.870;13.660;2022-09-09T14:31:04;2.85;;;0.80;;
53411;SDS011;39307;52.870;13.660;2022-09-09T14:33:31;3.83;;;0.90;;
53411;SDS011;39307;52.870;13.660;2022-09-09T14:36:01;3.88;;;0.73;;
53411;SDS011;39307;52.870;13.660;2022-09-09T14:38:29;3.23;;;0.70;;
53411;SDS011;39307;52.870;13.660;2022-09-09T14:41:00;4.40;;;0.88;;
53411;SDS011;39307;52.870;13.660;2022-09-09T14:43:26;4.47;;;0.90;;
53411;SDS011;39307;52.870;13.660;2022-09-09T14:45:53;2.67;;;0.60;;
53411;SDS011;39307;52.870;13.660;2022-09-09T14:48:19;3.33;;;0.90;;
53411;SDS011;39307;52.870;13.660;2022-09-09T14:50:45;2.75;;;0.90;;
53411;SDS011;39307;52.870;13.660;2022-09-09T14:53:11;2.47;;;0.80;;
53411;SDS011;39307;52.870;13.660;2022-09-09T14:55:38;3.47;;;0.75;;
53411;SDS011;39307;52.870;13.660;2022-09-09T14:58:04;3.60;;;0.70;;
53411;SDS011;39307;52.870;13.660;2022-09-09T15:00:30;3.25;;;0.90;;
53411;SDS011;39307;52.870;13.660;2022-09-09T15:02:57;3.50;;;0.80;;
53411;SDS011;39307;52.870;13.660;2022-09-09T15:05:23;3.10;;;0.80;;
53411;SDS011;39307;52.870;13.660;2022-09-09T15:07:50;3.70;;;0.80;;
53411;SDS011;39307;52.870;13.660;2022-09-09T15:10:17;2.92;;;0.82;;
53411;SDS011;39307;52.870;13.660;2022-09-09T15:12:44;3.33;;;0.90;;
53411;SDS011;39307;52.870;13.660;2022-09-09T15:15:10;7.22;;;1.00;;
53411;SDS011;39307;52.870;13.660;2022-09-09T15:17:37;3.83;;;0.90;;
53411;SDS011;39307;52.870;13.660;2022-09-09T15:20:03;2.78;;;0.93;;
53411;SDS011;39307;52.870;13.660;2022-09-09T15:22:30;3.17;;;1.00;;
53411;SDS011;39307;52.870;13.660;2022-09-09T15:24:56;5.03;;;1.00;;
53411;SDS011;39307;52.870;13.660;2022-09-09T15:27:22;3.88;;;0.90;;
53411;SDS011;39307;52.870;13.660;2022-09-09T15:29:49;2.80;;;0.80;;
53411;SDS011;39307;52.870;13.660;2022-09-09T15:32:15;3.65;;;0.90;;
53411;SDS011;39307;52.870;13.660;2022-09-09T15:34:41;4.20;;;1.08;;
53411;SDS011;39307;52.870;13.660;2022-09-09T15:37:09;3.37;;;1.10;;
53411;SDS011;39307;52.870;13.660;2022-09-09T15:39:36;3.63;;;0.90;;
53411;SDS011;39307;52.870;13.660;2022-09-09T15:42:02;3.78;;;1.15;;
53411;SDS011;39307;52.870;13.660;2022-09-09T15:44:29;2.63;;;1.00;;
53411;SDS011;39307;52.870;13.660;2022-09-09T15:46:55;3.63;;;1.20;;
53411;SDS011;39307;52.870;13.660;2022-09-09T15:49:24;3.73;;;0.90;;
53411;SDS011;39307;52.870;13.660;2022-09-09T15:51:55;3.60;;;1.08;;
53411;SDS011;39307;52.870;13.660;2022-09-09T15:54:23;4.27;;;1.13;;
53411;SDS011;39307;52.870;13.660;2022-09-09T15:56:52;2.77;;;0.90;;
53411;SDS011;39307;52.870;13.660;2022-09-09T15:59:20;4.20;;;1.10;;
53411;SDS011;39307;52.870;13.660;2022-09-09T16:01:47;4.20;;;1.10;;
53411;SDS011;39307;52.870;13.660;2022-09-09T16:04:14;2.53;;;1.00;;
53411;SDS011;39307;52.870;13.660;2022-09-09T16:06:40;3.43;;;1.00;;
53411;SDS011;39307;52.870;13.660;2022-09-09T16:09:07;3.90;;;0.93;;
53411;SDS011;39307;52.870;13.660;2022-09-09T16:11:34;4.38;;;0.80;;
53411;SDS011;39307;52.870;13.660;2022-09-09T16:14:02;3.40;;;1.00;;
53411;SDS011;39307;52.870;13.660;2022-09-09T16:16:29;2.78;;;0.90;;
53411;SDS011;39307;52.870;13.660;2022-09-09T16:18:57;4.32;;;0.88;;
53411;SDS011;39307;52.870;13.660;2022-09-09T16:23:53;4.03;;;1.08;;
53411;SDS011;39307;52.870;13.660;2022-09-09T16:26:19;2.25;;;0.80;;
53411;SDS011;39307;52.870;13.660;2022-09-09T16:28:46;2.92;;;0.90;;
53411;SDS011;39307;52.870;13.660;2022-09-09T16:31:17;3.72;;;0.98;;